createdAt,value
2022-12-08T00:01:15.216Z,4.00
2022-12-08T00:03:43.160Z,4.00
2022-12-08T00:06:55.227Z,4.00
2022-12-08T00:09:40.452Z,4.00
2022-12-08T00:12:08.662Z,3.90
2022-12-08T00:14:40.899Z,3.90
2022-12-08T00:17:09.931Z,3.90
2022-12-08T00:19:39.109Z,3.90
2022-12-08T00:22:07.537Z,3.90
2022-12-08T00:24:39.385Z,3.90
2022-12-08T00:27:07.894Z,4.00
2022-12-08T00:29:34.643Z,3.90
2022-12-08T00:32:01.660Z,4.00
2022-12-08T00:34:28.519Z,4.00
2022-12-08T00:36:55.272Z,4.00
2022-12-08T00:39:22.032Z,4.00
2022-12-08T00:42:07.430Z,4.00
2022-12-08T00:44:34.484Z,4.00
2022-12-08T00:47:01.274Z,4.00
2022-12-08T00:49:28.051Z,4.10
2022-12-08T00:51:55.001Z,4.00
2022-12-08T00:54:25.453Z,4.10
2022-12-08T00:56:52.666Z,4.10
2022-12-08T00:59:19.617Z,4.10
2022-12-08T01:01:47.243Z,4.10
2022-12-08T01:04:16.463Z,4.10
2022-12-08T01:06:44.376Z,4.10
2022-12-08T01:09:12.482Z,4.10
2022-12-08T01:11:39.323Z,4.10
2022-12-08T01:14:06.122Z,4.10
2022-12-08T01:16:35.099Z,4.10
2022-12-08T01:19:02.245Z,4.10
2022-12-08T01:21:29.688Z,4.10
2022-12-08T01:23:58.750Z,4.10
2022-12-08T01:26:25.553Z,4.10
2022-12-08T01:28:52.448Z,4.10
2022-12-08T01:31:21.714Z,4.00
2022-12-08T01:33:49.349Z,4.10
2022-12-08T01:36:21.663Z,4.10
2022-12-08T01:38:48.883Z,4.10
2022-12-08T01:41:24.188Z,4.10
2022-12-08T01:44:23.073Z,4.00
2022-12-08T01:46:49.886Z,4.00
2022-12-08T01:49:22.562Z,4.00
2022-12-08T01:52:00.111Z,4.00
2022-12-08T01:54:31.825Z,3.90
2022-12-08T01:57:09.733Z,3.90
2022-12-08T01:59:41.270Z,3.90
2022-12-08T02:02:10.275Z,3.90
2022-12-08T02:04:37.235Z,3.90
2022-12-08T02:07:08.184Z,3.90
2022-12-08T02:09:37.162Z,3.80
2022-12-08T02:12:04.464Z,3.80
2022-12-08T02:14:32.162Z,3.80
2022-12-08T02:17:39.586Z,3.80
2022-12-08T02:20:15.496Z,3.70
2022-12-08T02:22:48.078Z,3.70
2022-12-08T02:25:14.865Z,3.70
2022-12-08T02:28:04.731Z,3.70
2022-12-08T02:30:54.462Z,3.70
2022-12-08T02:33:56.315Z,3.70
2022-12-08T02:36:32.141Z,3.70
2022-12-08T02:39:22.506Z,3.70
2022-12-08T02:42:44.231Z,3.70
2022-12-08T02:45:29.951Z,3.70
2022-12-08T02:47:58.585Z,3.70
2022-12-08T02:50:26.393Z,3.70
2022-12-08T02:52:53.338Z,3.80
2022-12-08T02:55:31.936Z,3.80
2022-12-08T02:58:22.565Z,3.80
2022-12-08T03:01:17.768Z,3.80
2022-12-08T03:03:53.913Z,3.80
2022-12-08T03:06:29.767Z,3.80
2022-12-08T03:09:10.492Z,3.90
2022-12-08T03:11:46.448Z,3.90
2022-12-08T03:14:17.244Z,3.90
2022-12-08T03:16:47.390Z,3.90
2022-12-08T03:19:20.807Z,3.90
2022-12-08T03:21:52.793Z,3.90
2022-12-08T03:24:22.767Z,3.90
2022-12-08T03:26:58.692Z,3.90
2022-12-08T03:29:26.125Z,4.00
2022-12-08T03:31:57.997Z,4.00
2022-12-08T03:34:28.108Z,4.00
2022-12-08T03:36:55.378Z,4.00
2022-12-08T03:39:22.195Z,4.00
2022-12-08T03:41:48.982Z,4.00
2022-12-08T03:44:15.860Z,4.00
2022-12-08T03:46:42.639Z,4.00
2022-12-08T03:49:09.522Z,4.00
2022-12-08T03:51:36.443Z,4.00
2022-12-08T03:54:04.016Z,4.00
2022-12-08T03:56:34.989Z,4.00
2022-12-08T03:59:01.799Z,4.00
2022-12-08T04:01:28.669Z,4.00
2022-12-08T04:03:55.516Z,4.00
2022-12-08T04:06:22.896Z,4.00
2022-12-08T04:08:51.117Z,4.10
2022-12-08T04:11:18.879Z,4.10
2022-12-08T04:13:46.003Z,4.10
2022-12-08T04:16:20.055Z,4.10
2022-12-08T04:18:47.082Z,4.00
2022-12-08T04:21:14.554Z,4.00
2022-12-08T04:23:41.685Z,4.00
2022-12-08T04:26:10.297Z,4.00
2022-12-08T04:28:37.186Z,4.00
2022-12-08T04:31:04.353Z,4.00
2022-12-08T04:33:31.393Z,4.00
2022-12-08T04:35:58.164Z,4.00
2022-12-08T04:38:24.981Z,4.10
2022-12-08T04:40:51.765Z,4.10
2022-12-08T04:43:18.935Z,4.00
2022-12-08T04:45:46.260Z,4.00
2022-12-08T04:48:13.358Z,4.10
2022-12-08T04:50:41.794Z,4.00
2022-12-08T04:53:09.510Z,4.00
2022-12-08T04:55:40.292Z,4.00
2022-12-08T04:58:07.353Z,4.00
2022-12-08T05:00:34.134Z,4.00
2022-12-08T05:03:00.978Z,4.00
2022-12-08T05:05:27.817Z,4.00
2022-12-08T05:07:54.668Z,4.00
2022-12-08T05:10:21.524Z,4.00
2022-12-08T05:12:48.288Z,4.00
2022-12-08T05:15:15.215Z,4.00
2022-12-08T05:17:42.044Z,4.00
2022-12-08T05:20:09.405Z,4.00
2022-12-08T05:22:36.333Z,3.90
2022-12-08T05:25:03.283Z,3.90
2022-12-08T05:27:30.075Z,3.90
2022-12-08T05:29:56.809Z,3.90
2022-12-08T05:32:23.586Z,3.90
2022-12-08T05:34:50.373Z,3.90
2022-12-08T05:37:17.187Z,3.90
2022-12-08T05:39:44.008Z,3.90
2022-12-08T05:42:10.790Z,3.90
2022-12-08T05:44:37.776Z,3.80
2022-12-08T05:47:04.642Z,3.80
2022-12-08T05:49:31.498Z,3.80
2022-12-08T05:51:58.255Z,3.80
2022-12-08T05:54:25.052Z,3.80
2022-12-08T05:56:51.793Z,3.80
2022-12-08T05:59:18.605Z,3.80
2022-12-08T06:01:45.354Z,3.80
2022-12-08T06:04:12.202Z,3.80
2022-12-08T06:06:38.933Z,3.80
2022-12-08T06:09:06.572Z,3.80
2022-12-08T06:11:34.478Z,3.80
2022-12-08T06:14:01.923Z,3.80
2022-12-08T06:16:30.319Z,3.80
2022-12-08T06:18:57.843Z,3.80
2022-12-08T06:21:25.075Z,3.80
2022-12-08T06:23:52.530Z,3.80
2022-12-08T06:26:20.007Z,3.80
2022-12-08T06:28:46.878Z,3.80
2022-12-08T06:31:19.752Z,3.80
2022-12-08T06:33:47.448Z,3.80
2022-12-08T06:36:15.765Z,3.80
2022-12-08T06:38:43.775Z,3.80
2022-12-08T06:41:12.037Z,3.80
2022-12-08T06:43:39.441Z,3.80
2022-12-08T06:46:09.049Z,3.80
2022-12-08T06:48:35.937Z,3.80
2022-12-08T06:51:21.104Z,3.80
2022-12-08T06:53:48.167Z,3.80
2022-12-08T06:56:15.851Z,3.80
2022-12-08T06:58:46.191Z,3.80
2022-12-08T07:01:17.423Z,3.80
2022-12-08T07:03:44.431Z,3.80
2022-12-08T07:06:16.107Z,3.80
2022-12-08T07:08:43.012Z,3.80
2022-12-08T07:11:14.205Z,3.80
2022-12-08T07:13:45.022Z,3.70
2022-12-08T07:16:13.000Z,3.70
2022-12-08T07:18:39.960Z,3.70
2022-12-08T07:21:12.988Z,3.70
2022-12-08T07:23:39.797Z,3.70
2022-12-08T07:26:10.384Z,3.70
2022-12-08T07:28:39.368Z,3.70
2022-12-08T07:31:07.594Z,3.70
2022-12-08T07:33:36.024Z,3.70
2022-12-08T07:36:06.335Z,3.70
2022-12-08T07:38:33.551Z,3.70
2022-12-08T07:41:00.754Z,3.70
2022-12-08T07:43:27.714Z,3.70
2022-12-08T07:45:54.685Z,3.80
2022-12-08T07:48:21.635Z,3.80
2022-12-08T07:50:48.560Z,3.70
2022-12-08T07:53:15.757Z,3.80
2022-12-08T07:55:43.654Z,3.70
2022-12-08T07:58:11.347Z,3.70
2022-12-08T08:00:38.207Z,3.70
2022-12-08T08:03:05.129Z,3.70
2022-12-08T08:05:31.979Z,3.70
2022-12-08T08:07:58.778Z,3.70
2022-12-08T08:10:25.713Z,3.70
2022-12-08T08:12:52.498Z,3.70
2022-12-08T08:15:21.039Z,3.70
2022-12-08T08:17:51.420Z,3.70
2022-12-08T08:20:19.399Z,3.70
2022-12-08T08:22:47.334Z,3.70
2022-12-08T08:25:14.774Z,3.70
2022-12-08T08:27:42.178Z,3.70
2022-12-08T08:30:15.235Z,3.70
2022-12-08T08:32:45.458Z,3.70
2022-12-08T08:35:12.516Z,3.70
2022-12-08T08:37:40.460Z,3.70
2022-12-08T08:40:10.057Z,3.70
2022-12-08T08:42:36.842Z,3.70
2022-12-08T08:45:03.898Z,3.70
2022-12-08T08:47:30.658Z,3.70
2022-12-08T08:49:57.386Z,3.70
2022-12-08T08:52:24.134Z,3.70
2022-12-08T08:54:50.897Z,3.70
2022-12-08T08:57:23.630Z,3.70
2022-12-08T08:59:52.270Z,3.70
2022-12-08T09:02:20.265Z,3.70
2022-12-08T09:04:47.698Z,3.70
2022-12-08T09:07:15.086Z,3.70
2022-12-08T09:09:42.027Z,3.70
2022-12-08T09:12:09.712Z,3.70
2022-12-08T09:14:36.774Z,3.70
2022-12-08T09:17:04.294Z,3.70
2022-12-08T09:19:32.798Z,3.70
2022-12-08T09:22:00.347Z,3.70
2022-12-08T09:24:27.193Z,3.70
2022-12-08T09:26:53.937Z,3.70
2022-12-08T09:29:20.715Z,3.70
2022-12-08T09:31:47.577Z,3.70
2022-12-08T09:34:15.777Z,3.70
2022-12-08T09:36:42.588Z,3.70
2022-12-08T09:39:09.491Z,3.70
2022-12-08T09:42:01.103Z,3.70
2022-12-08T09:44:57.157Z,3.70
2022-12-08T09:47:30.616Z,3.70
2022-12-08T09:50:04.449Z,3.70
2022-12-08T09:52:37.927Z,3.70
2022-12-08T09:55:14.326Z,3.70
2022-12-08T09:57:41.327Z,3.70
2022-12-08T10:00:13.280Z,3.70
2022-12-08T10:02:40.633Z,3.70
2022-12-08T10:05:13.085Z,3.70
2022-12-08T10:07:49.343Z,3.70
2022-12-08T10:10:44.823Z,3.70
2022-12-08T10:13:47.207Z,3.70
2022-12-08T10:16:31.300Z,3.80
2022-12-08T10:19:10.816Z,3.70
2022-12-08T10:21:40.498Z,3.70
2022-12-08T10:24:18.593Z,3.70
2022-12-08T10:26:46.782Z,3.70
2022-12-08T10:29:14.209Z,3.70
2022-12-08T10:31:41.687Z,3.70
2022-12-08T10:34:17.203Z,3.70
2022-12-08T10:36:49.438Z,3.70
2022-12-08T10:39:36.398Z,3.70
2022-12-08T10:42:17.876Z,3.70
2022-12-08T10:45:04.493Z,3.60
2022-12-08T10:47:36.994Z,3.60
2022-12-08T10:50:20.143Z,3.60
2022-12-08T10:52:58.469Z,3.60
2022-12-08T10:55:25.523Z,3.60
2022-12-08T10:57:52.317Z,3.50
2022-12-08T11:00:23.321Z,3.50
2022-12-08T11:02:59.761Z,3.50
2022-12-08T11:05:35.516Z,3.50
2022-12-08T11:08:04.408Z,3.50
2022-12-08T11:10:37.423Z,3.50
2022-12-08T11:13:12.597Z,3.60
2022-12-08T11:15:39.930Z,3.60
2022-12-08T11:18:10.035Z,3.50
2022-12-08T11:20:41.715Z,3.50
2022-12-08T11:23:24.248Z,3.50
2022-12-08T11:25:53.932Z,3.60
2022-12-08T11:28:24.152Z,3.50
2022-12-08T11:31:00.785Z,3.50
2022-12-08T11:33:29.144Z,3.50
2022-12-08T11:36:02.024Z,3.50
2022-12-08T11:38:29.696Z,3.60
2022-12-08T11:41:14.040Z,3.60
2022-12-08T11:43:56.401Z,3.60
2022-12-08T11:46:34.974Z,3.50
2022-12-08T11:49:13.420Z,3.50
2022-12-08T11:51:51.682Z,3.50
2022-12-08T11:54:41.163Z,3.50
2022-12-08T11:57:12.996Z,3.50
2022-12-08T11:59:46.758Z,3.40
2022-12-08T12:02:18.128Z,3.50
2022-12-08T12:05:02.479Z,3.50
2022-12-08T12:07:50.847Z,3.50
2022-12-08T12:10:44.774Z,3.50
2022-12-08T12:13:39.154Z,3.50
2022-12-08T12:16:08.966Z,3.50
2022-12-08T12:18:46.453Z,3.50
2022-12-08T12:21:22.552Z,3.50
2022-12-08T12:23:56.074Z,3.50
2022-12-08T12:26:25.989Z,3.50
2022-12-08T12:29:04.984Z,3.50
2022-12-08T12:31:38.263Z,3.50
2022-12-08T12:34:10.960Z,3.50
2022-12-08T12:36:53.853Z,3.60
2022-12-08T12:39:24.689Z,3.60
2022-12-08T12:42:00.471Z,3.60
2022-12-08T12:44:33.024Z,3.60
2022-12-08T12:47:02.654Z,3.60
2022-12-08T12:49:45.853Z,3.70
2022-12-08T12:52:15.597Z,3.60
2022-12-08T12:54:49.489Z,3.60
2022-12-08T12:57:23.181Z,3.60
2022-12-08T12:59:55.507Z,3.60
2022-12-08T13:02:32.967Z,3.50
2022-12-08T13:05:23.237Z,3.40
2022-12-08T13:07:54.922Z,3.40
2022-12-08T13:10:29.876Z,3.40
2022-12-08T13:13:02.536Z,3.30
2022-12-08T13:15:35.707Z,3.30
2022-12-08T13:18:02.974Z,3.20
2022-12-08T13:20:30.023Z,3.20
2022-12-08T13:23:12.032Z,3.10
2022-12-08T13:25:45.239Z,3.10
2022-12-08T13:28:27.417Z,3.10
2022-12-08T13:30:56.566Z,3.00
2022-12-08T13:33:30.614Z,2.90
2022-12-08T13:36:12.708Z,2.90
2022-12-08T13:38:42.409Z,2.80
2022-12-08T13:41:27.088Z,2.80
2022-12-08T13:44:56.676Z,2.60
2022-12-08T13:47:32.402Z,2.60
2022-12-08T13:58:33.259Z,2.50
2022-12-08T14:01:06.473Z,2.50
2022-12-08T14:04:28.490Z,2.40
2022-12-08T14:06:43.471Z,2.40
2022-12-08T14:09:17.178Z,2.40
2022-12-08T14:11:50.456Z,2.40
2022-12-08T14:15:01.375Z,2.40
2022-12-08T14:17:23.994Z,2.40
2022-12-08T14:19:58.323Z,2.40
2022-12-08T14:22:31.688Z,2.40
2022-12-08T14:24:58.483Z,2.30
2022-12-08T14:27:27.365Z,2.30
2022-12-08T14:30:13.178Z,2.40
2022-12-08T14:32:58.764Z,2.40
2022-12-08T14:35:37.016Z,2.30
2022-12-08T14:38:14.115Z,2.30
2022-12-08T14:40:47.186Z,2.40
2022-12-08T14:43:20.122Z,2.40
2022-12-08T14:45:50.536Z,2.40
2022-12-08T14:48:48.229Z,2.40
2022-12-08T14:51:21.290Z,2.40
2022-12-08T14:53:53.429Z,2.40
2022-12-08T14:56:33.144Z,2.40
2022-12-08T14:59:21.061Z,2.40
2022-12-08T15:01:50.518Z,2.40
2022-12-08T15:04:28.616Z,2.40
2022-12-08T15:07:04.670Z,2.40
2022-12-08T15:09:43.738Z,2.40
2022-12-08T15:12:13.286Z,2.40
2022-12-08T15:15:20.119Z,2.40
2022-12-08T15:17:51.514Z,2.40
2022-12-08T15:20:39.800Z,2.40
2022-12-08T15:23:17.712Z,2.40
2022-12-08T15:25:44.530Z,2.40
2022-12-08T15:28:14.083Z,2.50
2022-12-08T15:30:40.828Z,2.50
2022-12-08T15:33:07.643Z,2.50
2022-12-08T15:35:40.370Z,2.50
2022-12-08T15:38:16.659Z,2.50
2022-12-08T15:40:43.398Z,2.50
2022-12-08T15:43:11.618Z,2.50
2022-12-08T15:45:46.876Z,2.50
2022-12-08T15:48:25.630Z,2.50
2022-12-08T15:50:53.288Z,2.60
2022-12-08T15:53:20.414Z,2.50
2022-12-08T15:56:18.477Z,2.60
2022-12-08T15:58:54.289Z,2.60
2022-12-08T16:01:22.736Z,2.60
2022-12-08T16:09:36.161Z,2.60
2022-12-08T16:12:21.756Z,2.60
2022-12-08T16:17:36.391Z,2.60
2022-12-08T16:20:04.371Z,2.60
2022-12-08T16:25:20.994Z,2.60
2022-12-08T16:28:17.369Z,2.60
2022-12-08T16:30:40.982Z,2.70
2022-12-08T16:33:07.819Z,2.60
2022-12-08T16:35:34.582Z,2.70
2022-12-08T16:38:01.424Z,2.70
2022-12-08T16:40:28.332Z,2.70
2022-12-08T16:42:55.171Z,2.70
2022-12-08T16:45:24.564Z,2.70
2022-12-08T16:47:54.023Z,2.70
2022-12-08T16:50:23.728Z,2.70
2022-12-08T16:52:56.770Z,2.70
2022-12-08T16:55:23.578Z,2.70
2022-12-08T16:57:50.334Z,2.70
2022-12-08T17:00:20.239Z,2.70
2022-12-08T17:02:47.262Z,2.70
2022-12-08T17:05:16.187Z,2.70
2022-12-08T17:07:44.721Z,2.70
2022-12-08T17:10:14.350Z,2.70
2022-12-08T17:12:41.663Z,2.70
2022-12-08T17:15:12.238Z,2.70
2022-12-08T17:17:39.516Z,2.70
2022-12-08T17:20:14.950Z,2.70
2022-12-08T17:22:41.972Z,2.70
2022-12-08T17:25:09.434Z,2.70
2022-12-08T17:27:36.362Z,2.70
2022-12-08T17:30:04.702Z,2.70
2022-12-08T17:32:31.775Z,2.70
2022-12-08T17:34:58.578Z,2.70
2022-12-08T17:37:26.129Z,2.80
2022-12-08T17:39:52.799Z,2.80
2022-12-08T17:42:19.588Z,2.80
2022-12-08T17:44:46.631Z,2.80
2022-12-08T17:47:13.407Z,2.80
2022-12-08T17:49:40.142Z,2.80
2022-12-08T17:52:06.922Z,2.80
2022-12-08T17:54:34.032Z,2.80
2022-12-08T17:57:00.878Z,2.80
2022-12-08T17:59:28.701Z,2.80
2022-12-08T18:01:57.228Z,2.80
2022-12-08T18:04:25.437Z,2.80
2022-12-08T18:06:52.243Z,2.80
2022-12-08T18:09:19.897Z,2.80
2022-12-08T18:11:47.013Z,2.70
2022-12-08T18:14:14.806Z,2.80
2022-12-08T18:16:44.841Z,2.80
2022-12-08T18:19:13.028Z,2.80
2022-12-08T18:21:40.990Z,2.70
2022-12-08T18:24:09.465Z,2.80
2022-12-08T18:26:36.367Z,2.80
2022-12-08T18:29:03.630Z,2.80
2022-12-08T18:31:30.533Z,2.80
2022-12-08T18:33:57.324Z,2.80
2022-12-08T18:36:25.596Z,2.90
2022-12-08T18:38:53.535Z,2.90
2022-12-08T18:41:24.411Z,2.90
2022-12-08T18:43:52.370Z,2.90
2022-12-08T18:46:19.301Z,2.90
2022-12-08T18:48:48.911Z,2.90
2022-12-08T18:51:18.112Z,2.90
2022-12-08T18:53:46.273Z,2.90
2022-12-08T18:56:28.401Z,2.90
2022-12-08T18:59:02.598Z,3.00
2022-12-08T19:01:34.337Z,2.90
2022-12-08T19:06:50.347Z,2.80
2022-12-08T19:09:17.542Z,2.80
2022-12-08T19:11:44.610Z,2.70
2022-12-08T19:14:11.915Z,2.60
2022-12-08T19:16:38.802Z,2.60
2022-12-08T19:19:06.104Z,2.60
2022-12-08T19:21:32.916Z,2.60
2022-12-08T19:23:59.933Z,2.60
2022-12-08T19:26:28.029Z,2.60
2022-12-08T19:28:54.960Z,2.60
2022-12-08T19:31:21.834Z,2.60
2022-12-08T19:33:48.713Z,2.60
2022-12-08T19:36:19.344Z,2.60
2022-12-08T19:39:05.285Z,2.70
2022-12-08T19:41:51.019Z,2.70
2022-12-08T19:44:32.716Z,2.70
2022-12-08T19:47:00.458Z,2.70
2022-12-08T19:49:27.553Z,2.70
2022-12-08T19:51:54.304Z,2.70
2022-12-08T19:54:21.054Z,2.70
2022-12-08T19:56:47.959Z,2.70
2022-12-08T19:59:15.671Z,2.80
2022-12-08T20:01:43.944Z,2.70
2022-12-08T20:04:20.042Z,2.80
2022-12-08T20:06:46.982Z,2.80
2022-12-08T20:09:14.624Z,2.80
2022-12-08T20:11:41.459Z,2.80
2022-12-08T20:14:08.320Z,2.80
2022-12-08T20:16:35.615Z,2.70
2022-12-08T20:19:02.987Z,2.70
2022-12-08T20:21:30.118Z,2.70
2022-12-08T20:23:56.949Z,2.70
2022-12-08T20:26:24.122Z,2.70
2022-12-08T20:28:51.323Z,2.70
2022-12-08T20:31:24.889Z,2.80
2022-12-08T20:33:51.792Z,2.70
2022-12-08T20:36:20.483Z,2.70
2022-12-08T20:38:49.139Z,2.70
2022-12-08T20:41:16.572Z,2.70
2022-12-08T20:43:44.391Z,2.70
2022-12-08T20:46:13.471Z,2.70
2022-12-08T20:48:40.537Z,2.70
2022-12-08T20:51:07.627Z,2.70
2022-12-08T20:53:34.474Z,2.80
2022-12-08T20:56:01.385Z,2.70
2022-12-08T20:58:28.403Z,2.70
2022-12-08T21:00:55.414Z,2.70
2022-12-08T21:03:23.023Z,2.70
2022-12-08T21:05:51.417Z,2.70
2022-12-08T21:08:19.651Z,2.70
2022-12-08T21:10:53.787Z,2.70
2022-12-08T21:13:21.227Z,2.60
2022-12-08T21:15:48.170Z,2.70
2022-12-08T21:18:16.970Z,2.70
2022-12-08T21:20:44.528Z,2.70
2022-12-08T21:23:11.456Z,2.70
2022-12-08T21:25:43.947Z,2.70
2022-12-08T21:28:12.664Z,2.60
2022-12-08T21:30:40.134Z,2.70
2022-12-08T21:33:07.252Z,2.70
2022-12-08T21:35:34.182Z,2.70
2022-12-08T21:38:00.972Z,2.70
2022-12-08T21:40:27.782Z,2.70
2022-12-08T21:42:54.773Z,2.70
2022-12-08T21:45:21.960Z,2.70
2022-12-08T21:47:50.110Z,2.70
2022-12-08T21:50:18.105Z,2.70
2022-12-08T21:52:47.627Z,2.70
2022-12-08T21:55:20.176Z,2.70
2022-12-08T21:57:47.479Z,2.70
2022-12-08T22:00:16.595Z,2.80
2022-12-08T22:02:44.340Z,2.80
2022-12-08T22:05:11.572Z,2.70
2022-12-08T22:07:39.938Z,2.70
2022-12-08T22:10:08.445Z,2.80
2022-12-08T22:12:36.469Z,2.80
2022-12-08T22:15:07.990Z,2.70
2022-12-08T22:17:39.965Z,2.70
2022-12-08T22:20:10.201Z,2.70
2022-12-08T22:22:37.843Z,2.70
2022-12-08T22:25:06.050Z,2.80
2022-12-08T22:27:35.896Z,2.80
2022-12-08T22:30:03.108Z,2.80
2022-12-08T22:32:30.390Z,2.80
2022-12-08T22:34:57.377Z,2.70
2022-12-08T22:37:24.306Z,2.70
2022-12-08T22:39:51.288Z,2.70
2022-12-08T22:42:18.971Z,2.70
2022-12-08T22:44:45.991Z,2.70
2022-12-08T22:47:13.024Z,2.70
2022-12-08T22:49:39.961Z,2.70
2022-12-08T22:52:06.867Z,2.70
2022-12-08T22:54:33.876Z,2.70
2022-12-08T22:57:00.694Z,2.70
2022-12-08T22:59:28.783Z,2.70
2022-12-08T23:01:55.752Z,2.70
2022-12-08T23:04:22.762Z,2.70
2022-12-08T23:06:49.838Z,2.70
2022-12-08T23:09:16.702Z,2.70
2022-12-08T23:11:44.175Z,2.70
2022-12-08T23:14:11.211Z,2.70
2022-12-08T23:16:38.392Z,2.70
2022-12-08T23:19:05.255Z,2.70
2022-12-08T23:21:32.203Z,2.70
2022-12-08T23:24:01.110Z,2.70
2022-12-08T23:26:31.661Z,2.70
2022-12-08T23:28:59.199Z,2.70
2022-12-08T23:31:26.358Z,2.70
2022-12-08T23:33:53.508Z,2.70
2022-12-08T23:36:22.075Z,2.70
2022-12-08T23:38:49.120Z,2.70
2022-12-08T23:41:16.696Z,2.70
2022-12-08T23:43:46.273Z,2.70
2022-12-08T23:46:14.405Z,2.70
2022-12-08T23:48:42.186Z,2.60
2022-12-08T23:51:09.731Z,2.60
2022-12-08T23:53:36.844Z,2.60
2022-12-08T23:56:07.062Z,2.60
2022-12-08T23:58:35.228Z,2.60
